Airfield :
LOGIN :

Register | Disclaimer

   EN    FR    IT 

 










Legend :    VFR   Marginal VFR   IFR   Intensive IFR   Very Intensive IFR
Visi :
Ceiling :
>= 8 km
>= 3000ft
5 to 8 km
1000 to 3000 ft
1500m to 5 km
500 to 1000 ft
800 to 1500m
200 to 500 ft
< 800m
< 200 ft
Symbols :   Thunderstorms  Fog  Heavy snow  Heavy precipitations  Wind > 20 kt
SIGMETs :     Misc.  Thunderstorms  Icing  Turbulence  Mountain Waves  Volcanic Ashes







- Airport Elevation : 392 ft


EPDE - Deblin

METAR N/A
TAF TAF EPDE
Valid from the 12 at 21:00 until the 13 at 06:00 UTC


122000Z 1221/1306 34006KT 3000 -SN BR BKN006 OVC070
TEMPO 1221/1306 1500 SN BR OVC004
No reported NOTAMs for that airfield.
1 SIGMET reported for the Warszawa FIR (EPWW) :
 
Severe icing
EPWW SIGMET 1 VALID 130035/130435 EPWA
EPWW WARSAW FIR SEV ICE OBS NE OF LINE N5420 E02000 - N5130 E01920 - N5130 E01920 - N5130 E01920 - N4920 E02130 SFC/FL030 MOV SW NC=



MET'MAP, your aeronautical weather chart ! - Copyright ORBIFLY December 2007 - Disclaimer

ORBIFLY MET'MAP TEAM :

Programming & Development : Alexandra Zaïnal
Concept & Development : Baudouin d'Aumeries
Co-Development & Prog : Marc-Olivier Méhu
Technical & hardware support : Manuel Goepfert

Contact : metmap@orbifly.com




SOURCES & CREDITS :

   NOAA